Salem, VA

5:44 AM EST on February 09, 2016 (GMT -0500)
APRSWXNET | | Change Station
CLOSE
Current Station
Personal Weather Station
Location: Salem, VA
Elevation: 3608 ft
Nearby Weather Stations
Active Advisory: Special Statement

Elev 3608 ft 37.28 °N, 80.08 °W | Updated 37 minutes ago

Overcast
Overcast
33.0 °F
Feels Like 33.0 °F
N
3.0
Wind Variable Wind from SE
Gusts 0.0 mph

Today
High -- | Low -- °F
--% Chance of Precip.
Yesterday
High -- | Low -- °F
Precip. -- in
Pressure 29.61 in
Visibility 10.0 miles
Clouds Overcast 10000 ft
Dew Point 28.0 °F
Humidity 81%
Rainfall in
Snow Depth Not available.
7:16 AM 5:53 PM
New Moon, 1% visible
METAR KROA 090954Z 28006KT 10SM OVC100 00/M03 A2959 RMK AO2 SLP027 T00001033
Pressure 29.61 in
Visibility 10.0 miles
Clouds Overcast 10000 ft
Dew Point 28.0 °F
Humidity 81%
Rainfall in
Snow Depth Not available.
7:16 AM 5:53 PM
New Moon, 1% visible
METAR KROA 090954Z 28006KT 10SM OVC100 00/M03 A2959 RMK AO2 SLP027 T00001033

10-Day Weather Forecast

Almanac

Astronomy

Feb. 09, 2016 Rise Set
Actual Time
Civil Twilight
Nautical Twilight
Astronomical Twilight
Moon
Length of Visible Light
Length of Day
Tomorrow will be .
, % of the Moon is Illuminated

Today's Extremes

State Highs State Lows

Community

WunderPhotos

Upload Photos

1,891,565 photos uploaded!

WunderBlog® & News

Nearby

Air Quality

  Air Quality AQ Index Pollutant
Not available.

Snow Depth

Station Depth Elevation

Earthquake Activity

City Distance Mag. Time & Date
Minimum magnitude displayed is 2.5.

Coastal Water Temperatures

Place Temperature

Stations

Nearby Weather Stations

Station Location Temp. Windchill Dew Point Humidity Wind Precip. Elev Updated Type
                   

Watches & Warnings

Special Statement
Issued: 5:19 AM EST Feb. 9, 2016 – National Weather Service

... Snow showers and snow flurries will continue this morning...

Scattered snow showers and snow flurries will continue this
morning across the region. Additional snow amounts up to 1 inch
are possible with heavier snow bands. Roads may be slick and
covered with snow and ice in spots. Be prepared for slippery
roads and limited visibilities... and use caution while driving.




519 am EST Tue Feb 9 2016

... Snow showers and snow flurries will continue this morning...

Scattered snow showers and snow flurries will continue this
morning across the region. Additional snow amounts up to 1 inch
are possible with heavier snow bands. Roads may be slick and
covered with snow and ice in spots. Be prepared for slippery
roads and limited visibilities... and use caution while driving.